Time;durP1;ratioP1;P1;durP2;ratioP2;P2;SDS_P1;SDS_P2;PMS_P1;PMS_P2;Temp;Humidity;BMP_temperature;BMP_pressure;BME280_temperature;BME280_humidity;BME280_pressure;Samples;Min_cycle;Max_cycle;Signal;HPM_P1;HPM_P2
2021/12/28 00:01:19;;;;;;;10.43;5.40;;;;;;;;;;5072175;28;20024;-62
2021/12/28 00:03:45;;;;;;;12.63;4.75;;;;;;;;;;5091965;28;20042;-64
2021/12/28 00:06:11;;;;;;;9.45;4.18;;;;;;;;;;5074700;28;20039;-63
2021/12/28 00:08:37;;;;;;;12.73;5.03;;;;;;;;;;5074280;28;20031;-63
2021/12/28 00:11:04;;;;;;;10.68;4.30;;;;;;;;;;5057737;28;20085;-63
2021/12/28 00:13:30;;;;;;;13.65;5.07;;;;;;;;;;5092629;28;20035;-63
2021/12/28 00:18:22;;;;;;;11.50;5.65;;;;;;;;;;5074435;28;20047;-63
2021/12/28 00:20:49;;;;;;;12.57;5.28;;;;;;;;;;5092385;28;20118;-63
2021/12/28 00:23:17;;;;;;;11.65;5.10;;;;;;;;;;5092411;28;20039;-64
2021/12/28 00:25:43;;;;;;;12.48;5.63;;;;;;;;;;5074393;28;20035;-63
2021/12/28 00:28:09;;;;;;;9.00;5.53;;;;;;;;;;5092419;28;20040;-63
2021/12/28 00:30:35;;;;;;;9.35;5.60;;;;;;;;;;5074331;28;20028;-63
2021/12/28 00:33:00;;;;;;;11.25;6.13;;;;;;;;;;5092299;28;20089;-63
2021/12/28 00:35:27;;;;;;;11.30;6.05;;;;;;;;;;5074221;28;20060;-63
2021/12/28 00:37:53;;;;;;;9.15;6.05;;;;;;;;;;5073905;28;20036;-62
2021/12/28 00:40:18;;;;;;;9.98;6.32;;;;;;;;;;5056388;28;20082;-63
2021/12/28 00:42:44;;;;;;;11.88;6.35;;;;;;;;;;5092205;28;20039;-63
2021/12/28 00:45:09;;;;;;;12.88;5.70;;;;;;;;;;5057224;28;20031;-64
2021/12/28 00:47:35;;;;;;;8.68;5.93;;;;;;;;;;5092117;28;20036;-63
2021/12/28 00:50:00;;;;;;;13.20;6.10;;;;;;;;;;5091979;28;20055;-62
2021/12/28 00:52:26;;;;;;;10.52;6.30;;;;;;;;;;5092363;28;20121;-63
2021/12/28 00:54:51;;;;;;;13.60;6.20;;;;;;;;;;5091850;28;20038;-63
2021/12/28 00:57:16;;;;;;;14.13;6.55;;;;;;;;;;5092294;28;20378;-63
2021/12/28 00:59:42;;;;;;;10.25;6.20;;;;;;;;;;5091997;28;20043;-63
2021/12/28 01:02:07;;;;;;;11.57;6.30;;;;;;;;;;5091751;28;20040;-63
2021/12/28 01:04:33;;;;;;;8.02;5.20;;;;;;;;;;5091917;28;20048;-63
2021/12/28 01:06:58;;;;;;;7.95;5.78;;;;;;;;;;5092022;28;20036;-63
2021/12/28 01:09:30;;;;;;;8.95;5.45;;;;;;;;;;5091768;28;20036;-63
2021/12/28 01:11:56;;;;;;;10.52;5.15;;;;;;;;;;5057441;28;20036;-63
2021/12/28 01:14:21;;;;;;;8.90;4.95;;;;;;;;;;5074910;28;20028;-62
2021/12/28 01:16:47;;;;;;;12.52;4.75;;;;;;;;;;5095378;28;20432;-62
2021/12/28 01:19:12;;;;;;;10.13;4.30;;;;;;;;;;5095294;28;20019;-62
2021/12/28 01:21:38;;;;;;;10.70;4.22;;;;;;;;;;5095186;28;20051;-63
2021/12/28 01:24:03;;;;;;;10.57;4.55;;;;;;;;;;5076960;28;20172;-63
2021/12/28 01:26:29;;;;;;;8.00;5.10;;;;;;;;;;5095226;28;20040;-63
2021/12/28 01:28:54;;;;;;;8.80;5.75;;;;;;;;;;5095105;28;20032;-63
2021/12/28 01:31:19;;;;;;;11.02;5.47;;;;;;;;;;5095168;28;20028;-62
2021/12/28 01:33:45;;;;;;;11.75;6.38;;;;;;;;;;5094958;28;20111;-63
2021/12/28 01:36:10;;;;;;;10.45;6.00;;;;;;;;;;5095024;28;20050;-63
2021/12/28 01:38:36;;;;;;;10.73;5.93;;;;;;;;;;5094876;28;20036;-63
2021/12/28 01:41:02;;;;;;;9.10;5.90;;;;;;;;;;5060090;28;20429;-63
2021/12/28 01:43:27;;;;;;;9.35;5.93;;;;;;;;;;5095292;28;20078;-62
2021/12/28 01:45:54;;;;;;;9.50;5.70;;;;;;;;;;5094222;28;20024;-64
2021/12/28 01:48:26;;;;;;;9.68;5.95;;;;;;;;;;5076223;28;20064;-63
2021/12/28 01:50:52;;;;;;;10.52;5.90;;;;;;;;;;5074582;28;20043;-62
2021/12/28 01:53:19;;;;;;;9.07;5.63;;;;;;;;;;5074281;28;20075;-62
2021/12/28 01:55:46;;;;;;;8.18;5.10;;;;;;;;;;5055817;28;20464;-63
2021/12/28 01:58:12;;;;;;;7.38;4.63;;;;;;;;;;5073848;28;20060;-64
2021/12/28 02:00:38;;;;;;;7.13;4.43;;;;;;;;;;5074238;28;20068;-63
2021/12/28 02:03:11;;;;;;;6.40;3.97;;;;;;;;;;5056476;28;20036;-63
2021/12/28 02:05:36;;;;;;;7.93;4.28;;;;;;;;;;5074577;28;20039;-63
2021/12/28 02:08:02;;;;;;;9.75;4.68;;;;;;;;;;5056005;28;20036;-62
2021/12/28 02:10:28;;;;;;;5.85;4.10;;;;;;;;;;5056272;28;20123;-62
2021/12/28 02:12:53;;;;;;;10.55;4.28;;;;;;;;;;5074337;28;20113;-63
2021/12/28 02:15:19;;;;;;;6.97;4.03;;;;;;;;;;5074290;28;20032;-62
2021/12/28 02:17:44;;;;;;;8.40;4.22;;;;;;;;;;5073989;28;20044;-62
2021/12/28 02:20:11;;;;;;;8.27;4.57;;;;;;;;;;5074039;28;20036;-62
2021/12/28 02:22:37;;;;;;;7.03;4.65;;;;;;;;;;5073846;28;20039;-62
2021/12/28 02:25:03;;;;;;;8.00;4.25;;;;;;;;;;5056069;28;20036;-62
2021/12/28 02:27:29;;;;;;;5.97;3.28;;;;;;;;;;5038794;28;20032;-62
2021/12/28 02:29:55;;;;;;;6.05;3.70;;;;;;;;;;5073954;28;20040;-63
2021/12/28 02:32:23;;;;;;;6.22;3.60;;;;;;;;;;5073992;28;20033;-63
2021/12/28 02:34:49;;;;;;;5.05;2.90;;;;;;;;;;5072617;28;20028;-63
2021/12/28 02:37:14;;;;;;;5.20;3.17;;;;;;;;;;5055778;28;20447;-64
2021/12/28 02:39:39;;;;;;;5.90;3.38;;;;;;;;;;5074140;28;20033;-63
2021/12/28 02:42:05;;;;;;;7.20;3.60;;;;;;;;;;5072593;28;20111;-63
2021/12/28 02:44:30;;;;;;;6.18;3.50;;;;;;;;;;5073622;28;20036;-64
2021/12/28 02:46:56;;;;;;;7.07;4.03;;;;;;;;;;5073686;28;20395;-63
2021/12/28 02:49:21;;;;;;;6.45;3.28;;;;;;;;;;5073653;28;20043;-63
2021/12/28 02:51:47;;;;;;;9.23;3.75;;;;;;;;;;5073445;28;20570;-65
2021/12/28 02:54:12;;;;;;;8.63;3.67;;;;;;;;;;5073687;28;20040;-62
2021/12/28 02:56:37;;;;;;;5.18;3.38;;;;;;;;;;5073471;28;20115;-62
2021/12/28 02:59:03;;;;;;;7.05;3.45;;;;;;;;;;5072565;28;20044;-62
2021/12/28 03:01:29;;;;;;;7.00;3.50;;;;;;;;;;5073409;28;20384;-61
2021/12/28 03:03:58;;;;;;;6.80;3.33;;;;;;;;;;5073368;28;20040;-62
2021/12/28 03:06:24;;;;;;;7.57;3.53;;;;;;;;;;5055329;28;20072;-64
2021/12/28 03:08:53;;;;;;;7.68;3.70;;;;;;;;;;5055418;28;20518;-62
2021/12/28 03:11:19;;;;;;;7.18;3.80;;;;;;;;;;5055517;28;20043;-62
2021/12/28 03:13:46;;;;;;;7.35;3.47;;;;;;;;;;5073223;28;20036;-62
2021/12/28 03:16:12;;;;;;;8.55;3.90;;;;;;;;;;5073506;28;20060;-62
2021/12/28 03:18:38;;;;;;;6.82;3.60;;;;;;;;;;5038985;28;20439;-62
2021/12/28 03:21:04;;;;;;;7.00;3.67;;;;;;;;;;5072880;28;20044;-62
2021/12/28 03:23:30;;;;;;;6.78;3.67;;;;;;;;;;5055112;28;20039;-62
2021/12/28 03:25:56;;;;;;;5.43;3.85;;;;;;;;;;5073041;28;20395;-62
2021/12/28 03:28:23;;;;;;;6.30;3.80;;;;;;;;;;5073166;28;20093;-62
2021/12/28 03:30:49;;;;;;;6.47;4.00;;;;;;;;;;5055079;28;20086;-62
2021/12/28 03:33:15;;;;;;;8.45;4.10;;;;;;;;;;5054932;28;20047;-61
2021/12/28 03:35:41;;;;;;;6.60;4.07;;;;;;;;;;5072711;28;20460;-62
2021/12/28 03:38:06;;;;;;;7.90;4.13;;;;;;;;;;5053753;28;20036;-62
2021/12/28 03:40:33;;;;;;;6.78;4.45;;;;;;;;;;5072857;28;20040;-62
2021/12/28 03:42:58;;;;;;;5.68;3.85;;;;;;;;;;5055090;28;20044;-63
2021/12/28 03:45:24;;;;;;;8.55;4.07;;;;;;;;;;5054731;28;20459;-64
2021/12/28 03:47:49;;;;;;;7.47;4.55;;;;;;;;;;5072775;28;20039;-63
2021/12/28 03:50:15;;;;;;;6.53;4.35;;;;;;;;;;5072546;28;20040;-63
2021/12/28 03:52:41;;;;;;;7.03;4.75;;;;;;;;;;5054852;28;20032;-62
2021/12/28 03:55:07;;;;;;;5.80;4.50;;;;;;;;;;5072944;28;20039;-62
2021/12/28 03:57:33;;;;;;;6.88;4.18;;;;;;;;;;5054718;28;20043;-62
2021/12/28 03:59:58;;;;;;;9.55;4.50;;;;;;;;;;5072396;28;20028;-62
2021/12/28 04:02:23;;;;;;;7.32;4.47;;;;;;;;;;5070139;28;20043;-63
2021/12/28 04:04:49;;;;;;;6.70;4.43;;;;;;;;;;5067406;28;20487;-63
2021/12/28 04:07:19;;;;;;;6.97;4.18;;;;;;;;;;5050148;28;20032;-68
2021/12/28 04:12:17;;;;;;;8.88;5.50;;;;;;;;;;5068565;28;20072;-64
2021/12/28 04:14:42;;;;;;;7.65;5.00;;;;;;;;;;5050435;28;20113;-62
2021/12/28 04:17:07;;;;;;;9.70;5.55;;;;;;;;;;5050521;28;20068;-62
2021/12/28 04:19:33;;;;;;;6.55;4.30;;;;;;;;;;5068232;28;20043;-68
2021/12/28 04:21:58;;;;;;;7.50;5.00;;;;;;;;;;5050727;28;20044;-61
2021/12/28 04:24:24;;;;;;;9.13;4.53;;;;;;;;;;5068219;28;20051;-64
2021/12/28 04:26:49;;;;;;;7.90;4.72;;;;;;;;;;5087926;28;20670;-63
2021/12/28 04:29:15;;;;;;;6.80;4.47;;;;;;;;;;5088410;28;20028;-67
2021/12/28 04:31:40;;;;;;;6.80;4.68;;;;;;;;;;5088555;28;20036;-68
2021/12/28 04:34:05;;;;;;;7.90;4.63;;;;;;;;;;5088987;28;20055;-63
2021/12/28 04:36:31;;;;;;;7.78;4.60;;;;;;;;;;5070131;28;20101;-62
2021/12/28 04:38:57;;;;;;;7.15;4.97;;;;;;;;;;5088153;28;20035;-63
2021/12/28 04:41:23;;;;;;;8.35;4.85;;;;;;;;;;5069996;28;20486;-64
2021/12/28 04:43:49;;;;;;;8.30;4.68;;;;;;;;;;5088357;28;20119;-62
2021/12/28 04:46:14;;;;;;;8.68;4.38;;;;;;;;;;5086943;28;20467;-64
2021/12/28 04:48:40;;;;;;;7.40;4.03;;;;;;;;;;5088376;28;20036;-62
2021/12/28 04:51:06;;;;;;;7.22;4.35;;;;;;;;;;5091477;28;20066;-62
2021/12/28 04:53:31;;;;;;;6.88;4.10;;;;;;;;;;5092029;28;20036;-62
2021/12/28 04:55:57;;;;;;;6.60;3.80;;;;;;;;;;5091755;28;20036;-63
2021/12/28 04:58:22;;;;;;;6.63;3.80;;;;;;;;;;5091678;28;20497;-62
2021/12/28 05:00:49;;;;;;;6.63;4.10;;;;;;;;;;5091376;28;20470;-63
2021/12/28 05:03:16;;;;;;;6.82;4.07;;;;;;;;;;5073515;28;20095;-62
2021/12/28 05:05:43;;;;;;;6.55;3.97;;;;;;;;;;5091733;28;20035;-63
2021/12/28 05:08:09;;;;;;;6.63;3.95;;;;;;;;;;5073383;28;20035;-62
2021/12/28 05:10:35;;;;;;;7.25;4.38;;;;;;;;;;5073290;28;20114;-62
2021/12/28 05:13:00;;;;;;;7.13;4.85;;;;;;;;;;5091630;28;20103;-63
2021/12/28 05:15:26;;;;;;;10.95;4.60;;;;;;;;;;5073281;28;20044;-63
2021/12/28 05:17:51;;;;;;;7.80;3.80;;;;;;;;;;5091395;28;20071;-63
2021/12/28 05:20:17;;;;;;;6.47;3.97;;;;;;;;;;5091196;28;20036;-63
2021/12/28 05:22:42;;;;;;;6.40;3.65;;;;;;;;;;5073112;28;20473;-62
2021/12/28 05:25:08;;;;;;;7.35;3.70;;;;;;;;;;5091079;28;20058;-64
2021/12/28 05:27:34;;;;;;;6.43;3.40;;;;;;;;;;5073157;28;20035;-62
2021/12/28 05:29:59;;;;;;;8.70;3.63;;;;;;;;;;5091249;28;20039;-63
2021/12/28 05:32:24;;;;;;;5.00;3.13;;;;;;;;;;5073161;28;20043;-62
2021/12/28 05:34:50;;;;;;;5.05;3.40;;;;;;;;;;5090985;28;20473;-62
2021/12/28 05:37:16;;;;;;;4.93;3.00;;;;;;;;;;5090894;28;20059;-62
2021/12/28 05:39:41;;;;;;;5.97;3.13;;;;;;;;;;5089851;28;20040;-63
2021/12/28 05:42:07;;;;;;;6.20;2.88;;;;;;;;;;5091156;28;20067;-62
2021/12/28 05:44:32;;;;;;;5.97;2.78;;;;;;;;;;5090935;28;20474;-67
2021/12/28 05:46:57;;;;;;;6.32;2.97;;;;;;;;;;5090927;28;20024;-65
2021/12/28 05:49:23;;;;;;;5.32;3.22;;;;;;;;;;5090960;28;20040;-64
2021/12/28 05:51:49;;;;;;;7.78;3.67;;;;;;;;;;5056185;28;20028;-61
2021/12/28 05:54:15;;;;;;;5.22;3.42;;;;;;;;;;5090644;28;20028;-61
2021/12/28 05:56:41;;;;;;;6.88;3.80;;;;;;;;;;5090223;28;20050;-63
2021/12/28 05:59:07;;;;;;;7.15;4.20;;;;;;;;;;5088965;28;20036;-63
2021/12/28 06:01:32;;;;;;;5.57;3.80;;;;;;;;;;5053586;28;20380;-62
2021/12/28 06:03:58;;;;;;;6.70;4.07;;;;;;;;;;5071500;28;20066;-64
2021/12/28 06:06:23;;;;;;;7.93;3.83;;;;;;;;;;5070413;28;20024;-62
2021/12/28 06:08:51;;;;;;;5.47;3.72;;;;;;;;;;5070919;28;20046;-62
2021/12/28 06:11:16;;;;;;;10.73;4.75;;;;;;;;;;5089352;28;20048;-65
2021/12/28 06:13:42;;;;;;;7.68;4.60;;;;;;;;;;5070909;28;20036;-64
2021/12/28 06:16:08;;;;;;;6.78;4.90;;;;;;;;;;5089620;28;20028;-62
2021/12/28 06:18:34;;;;;;;8.18;5.85;;;;;;;;;;5055413;28;20044;-63
2021/12/28 06:20:59;;;;;;;7.85;4.82;;;;;;;;;;5071140;28;20517;-68
2021/12/28 06:23:25;;;;;;;8.10;5.35;;;;;;;;;;5090043;28;20031;-62
2021/12/28 06:25:51;;;;;;;8.40;4.95;;;;;;;;;;5090497;28;20039;-63
2021/12/28 06:28:16;;;;;;;8.38;4.93;;;;;;;;;;5067587;28;20207;-67
2021/12/28 06:30:42;;;;;;;8.98;5.47;;;;;;;;;;5090259;28;20472;-63
2021/12/28 06:33:07;;;;;;;8.95;5.20;;;;;;;;;;5089616;28;20042;-62
2021/12/28 06:35:33;;;;;;;7.07;4.78;;;;;;;;;;5089204;28;20051;-65
2021/12/28 06:37:58;;;;;;;9.80;4.55;;;;;;;;;;5071176;28;20129;-69
2021/12/28 06:40:24;;;;;;;8.00;5.13;;;;;;;;;;5089851;28;20033;-62
2021/12/28 06:42:49;;;;;;;7.85;5.20;;;;;;;;;;5089398;28;20329;-62
2021/12/28 06:45:15;;;;;;;8.25;4.60;;;;;;;;;;5089409;28;20032;-64
2021/12/28 06:47:40;;;;;;;9.45;5.63;;;;;;;;;;5070699;28;20047;-63
2021/12/28 06:50:06;;;;;;;7.10;4.55;;;;;;;;;;5089223;28;20060;-62
2021/12/28 06:52:33;;;;;;;7.60;4.63;;;;;;;;;;5068010;28;20029;-69
2021/12/28 06:54:59;;;;;;;8.18;4.38;;;;;;;;;;5080027;28;20028;-64
2021/12/28 06:57:24;;;;;;;6.45;4.55;;;;;;;;;;5089580;28;20035;-65
2021/12/28 06:59:49;;;;;;;7.35;4.75;;;;;;;;;;5089602;28;20107;-64
2021/12/28 07:02:16;;;;;;;7.60;5.43;;;;;;;;;;5089214;28;20036;-62
2021/12/28 07:04:42;;;;;;;7.55;5.38;;;;;;;;;;5070911;28;20487;-64
2021/12/28 07:07:08;;;;;;;7.43;4.75;;;;;;;;;;5067519;28;20063;-64
2021/12/28 07:09:33;;;;;;;7.15;4.05;;;;;;;;;;5085591;28;20054;-65
2021/12/28 07:11:59;;;;;;;6.55;3.70;;;;;;;;;;5087506;28;20536;-64
2021/12/28 07:14:24;;;;;;;6.25;3.95;;;;;;;;;;5089866;28;20020;-63
2021/12/28 07:16:49;;;;;;;8.10;3.92;;;;;;;;;;5089187;28;20040;-64
2021/12/28 07:19:15;;;;;;;5.30;3.90;;;;;;;;;;5070983;28;20035;-65
2021/12/28 07:21:41;;;;;;;6.05;3.90;;;;;;;;;;5089366;28;20040;-64
2021/12/28 07:24:07;;;;;;;7.10;4.40;;;;;;;;;;5089637;28;20070;-64
2021/12/28 07:26:33;;;;;;;5.82;3.25;;;;;;;;;;5054137;28;20065;-63
2021/12/28 07:28:58;;;;;;;4.97;3.20;;;;;;;;;;5054129;28;20036;-65
2021/12/28 07:31:23;;;;;;;4.15;2.90;;;;;;;;;;5071456;28;20048;-64
2021/12/28 07:33:49;;;;;;;6.07;2.97;;;;;;;;;;5071109;28;20024;-63
2021/12/28 07:36:15;;;;;;;4.47;2.80;;;;;;;;;;5089291;28;20035;-63
2021/12/28 07:38:41;;;;;;;4.65;3.35;;;;;;;;;;5088883;28;20028;-64
2021/12/28 07:41:07;;;;;;;5.32;2.83;;;;;;;;;;5088617;28;20043;-63
2021/12/28 07:43:32;;;;;;;4.70;3.00;;;;;;;;;;5089468;28;20551;-63
2021/12/28 07:45:57;;;;;;;5.05;2.45;;;;;;;;;;5089107;28;20077;-63
2021/12/28 07:48:23;;;;;;;4.22;2.50;;;;;;;;;;5089180;28;20040;-65
2021/12/28 07:50:49;;;;;;;4.25;2.50;;;;;;;;;;5070243;28;20055;-63
2021/12/28 07:53:14;;;;;;;5.20;2.33;;;;;;;;;;5070785;28;20025;-63
2021/12/28 07:55:39;;;;;;;3.70;2.13;;;;;;;;;;5088952;28;20059;-64
2021/12/28 07:58:05;;;;;;;3.17;1.70;;;;;;;;;;5079413;28;20556;-63
2021/12/28 08:00:30;;;;;;;3.90;1.85;;;;;;;;;;5067592;28;20040;-67
2021/12/28 08:02:56;;;;;;;3.88;2.13;;;;;;;;;;5067471;28;20070;-63
2021/12/28 08:05:22;;;;;;;5.18;2.15;;;;;;;;;;5067502;28;20044;-67
2021/12/28 08:07:47;;;;;;;3.47;2.00;;;;;;;;;;5068569;28;20373;-67
2021/12/28 08:10:14;;;;;;;5.40;2.22;;;;;;;;;;5068544;28;20051;-67
2021/12/28 08:12:39;;;;;;;3.28;2.00;;;;;;;;;;5067145;28;20024;-66
2021/12/28 08:15:05;;;;;;;5.38;2.30;;;;;;;;;;5081855;28;20384;-67
2021/12/28 08:17:31;;;;;;;4.47;2.25;;;;;;;;;;5088017;28;20475;-66
2021/12/28 08:19:56;;;;;;;6.32;2.38;;;;;;;;;;5070122;28;20036;-67
2021/12/28 08:22:22;;;;;;;3.65;2.10;;;;;;;;;;5088383;28;20372;-66
2021/12/28 08:24:47;;;;;;;4.50;2.40;;;;;;;;;;5079658;28;20476;-67
2021/12/28 08:27:12;;;;;;;4.10;2.75;;;;;;;;;;5068196;28;20036;-66
2021/12/28 08:29:38;;;;;;;3.28;1.98;;;;;;;;;;5068027;28;20123;-67
2021/12/28 08:32:03;;;;;;;4.00;2.10;;;;;;;;;;5066718;28;20107;-67
2021/12/28 08:34:29;;;;;;;5.97;2.08;;;;;;;;;;5067949;28;20052;-67
2021/12/28 08:36:54;;;;;;;4.78;2.13;;;;;;;;;;5087298;28;20038;-66
2021/12/28 08:39:20;;;;;;;4.53;2.00;;;;;;;;;;5088392;28;20035;-67
2021/12/28 08:41:45;;;;;;;4.97;2.22;;;;;;;;;;5086840;28;20389;-67
2021/12/28 08:44:11;;;;;;;3.63;2.20;;;;;;;;;;5085727;28;20028;-67
2021/12/28 08:46:37;;;;;;;5.35;2.28;;;;;;;;;;5085998;28;20040;-68
2021/12/28 08:49:03;;;;;;;5.07;2.25;;;;;;;;;;5069952;28;20403;-67
2021/12/28 08:51:28;;;;;;;3.05;2.00;;;;;;;;;;5086218;28;20040;-67
2021/12/28 08:53:54;;;;;;;4.38;2.08;;;;;;;;;;5087976;28;20077;-67
2021/12/28 08:56:19;;;;;;;3.90;2.60;;;;;;;;;;5087879;28;20036;-67
2021/12/28 08:58:45;;;;;;;5.90;2.60;;;;;;;;;;5085853;28;20043;-68
2021/12/28 09:01:10;;;;;;;4.85;2.67;;;;;;;;;;5085528;28;20542;-68
2021/12/28 09:03:35;;;;;;;4.38;2.72;;;;;;;;;;5085652;28;20044;-67
2021/12/28 09:06:02;;;;;;;4.18;2.85;;;;;;;;;;5085777;28;20032;-67
2021/12/28 09:08:28;;;;;;;4.45;2.67;;;;;;;;;;5067677;28;20038;-68
2021/12/28 09:10:53;;;;;;;3.97;2.70;;;;;;;;;;5085588;28;20126;-68
2021/12/28 09:13:19;;;;;;;3.83;2.50;;;;;;;;;;5069413;28;20035;-68
2021/12/28 09:15:44;;;;;;;5.03;3.15;;;;;;;;;;5088286;28;20119;-68
2021/12/28 09:18:10;;;;;;;4.25;2.30;;;;;;;;;;5069740;28;20059;-67
2021/12/28 09:20:35;;;;;;;4.35;2.67;;;;;;;;;;5087635;28;20066;-68
2021/12/28 09:23:01;;;;;;;4.43;2.53;;;;;;;;;;5087391;28;20356;-68
2021/12/28 09:25:26;;;;;;;5.45;2.85;;;;;;;;;;5088020;28;20031;-67
2021/12/28 09:27:52;;;;;;;4.90;3.10;;;;;;;;;;5087789;28;20052;-68
2021/12/28 09:30:18;;;;;;;4.43;2.65;;;;;;;;;;5069319;28;20131;-68
2021/12/28 09:32:43;;;;;;;3.75;2.35;;;;;;;;;;5087301;28;20046;-69
2021/12/28 09:35:09;;;;;;;7.38;2.70;;;;;;;;;;5086811;28;20054;-67
2021/12/28 09:37:35;;;;;;;3.78;2.42;;;;;;;;;;5055589;28;20036;-67
2021/12/28 09:40:01;;;;;;;5.22;2.50;;;;;;;;;;5091092;28;20024;-68
2021/12/28 09:42:27;;;;;;;4.97;2.60;;;;;;;;;;5089811;28;20040;-68
2021/12/28 09:44:52;;;;;;;4.70;2.33;;;;;;;;;;5089996;28;20051;-67
2021/12/28 09:47:18;;;;;;;5.25;2.38;;;;;;;;;;5091023;28;20044;-68
2021/12/28 09:49:44;;;;;;;5.55;2.30;;;;;;;;;;5071803;28;20024;-67
2021/12/28 09:52:10;;;;;;;6.75;2.40;;;;;;;;;;5089060;28;20016;-68
2021/12/28 09:54:36;;;;;;;6.38;2.75;;;;;;;;;;5070377;28;20115;-68
2021/12/28 09:57:02;;;;;;;5.75;2.67;;;;;;;;;;5089247;28;20107;-66
2021/12/28 09:59:28;;;;;;;8.05;2.70;;;;;;;;;;5060850;28;20507;-67
2021/12/28 10:01:54;;;;;;;6.40;2.45;;;;;;;;;;5060642;28;20119;-66
2021/12/28 10:04:20;;;;;;;4.75;2.85;;;;;;;;;;5087692;28;20111;-67
2021/12/28 10:06:45;;;;;;;8.68;2.80;;;;;;;;;;5089515;28;20031;-67
2021/12/28 10:09:16;;;;;;;5.28;2.83;;;;;;;;;;5089572;28;20024;-67
2021/12/28 10:11:44;;;;;;;4.35;2.03;;;;;;;;;;5051635;28;20028;-68
2021/12/28 10:14:18;;;;;;;4.43;2.03;;;;;;;;;;5049355;28;20039;-68
2021/12/28 10:16:46;;;;;;;5.07;2.38;;;;;;;;;;5060397;28;20067;-68
2021/12/28 10:19:30;;;;;;;4.65;1.98;;;;;;;;;;5087079;28;20372;-68
2021/12/28 10:21:56;;;;;;;3.35;1.60;;;;;;;;;;5084838;28;20086;-68
2021/12/28 10:24:32;;;;;;;3.85;1.90;;;;;;;;;;5078235;28;20037;-68
2021/12/28 10:27:09;;;;;;;5.00;1.90;;;;;;;;;;5060367;28;20036;-68
2021/12/28 10:29:35;;;;;;;4.20;1.80;;;;;;;;;;5047510;28;20024;-67
2021/12/28 10:32:16;;;;;;;3.55;1.80;;;;;;;;;;5088939;28;20020;-67
2021/12/28 10:34:45;;;;;;;6.88;2.40;;;;;;;;;;5082098;28;20043;-67
2021/12/28 10:37:18;;;;;;;5.78;2.03;;;;;;;;;;5070709;28;20036;-68
2021/12/28 10:39:48;;;;;;;11.23;2.90;;;;;;;;;;5070156;28;20078;-68
2021/12/28 10:42:32;;;;;;;7.35;2.50;;;;;;;;;;5069367;28;20040;-68
2021/12/28 10:44:59;;;;;;;9.57;2.40;;;;;;;;;;5087609;28;20416;-68
2021/12/28 10:47:28;;;;;;;8.27;2.42;;;;;;;;;;5069182;28;20040;-67
2021/12/28 10:49:53;;;;;;;5.72;2.03;;;;;;;;;;5088125;28;20044;-67
2021/12/28 10:52:24;;;;;;;7.03;2.63;;;;;;;;;;5088146;28;20058;-67
2021/12/28 10:54:50;;;;;;;8.52;2.55;;;;;;;;;;5070307;28;20072;-68
2021/12/28 10:57:15;;;;;;;4.90;2.38;;;;;;;;;;5089713;28;20383;-68
2021/12/28 10:59:40;;;;;;;4.55;2.40;;;;;;;;;;5089682;28;20040;-67
2021/12/28 11:02:06;;;;;;;4.10;2.17;;;;;;;;;;5089329;28;20123;-67
2021/12/28 11:04:33;;;;;;;4.55;2.08;;;;;;;;;;5089344;28;20378;-67
2021/12/28 11:06:58;;;;;;;5.85;2.03;;;;;;;;;;5089235;28;20447;-67
2021/12/28 11:09:25;;;;;;;4.13;1.83;;;;;;;;;;5089324;28;20067;-67
2021/12/28 11:11:54;;;;;;;4.68;2.10;;;;;;;;;;5071468;28;20028;-68
2021/12/28 11:14:20;;;;;;;;;;;;;;;;;;5090100;28;20478;-67
2021/12/28 11:16:52;;;;;;;8.20;1.87;;;;;;;;;;5089003;28;19957;-67
2021/12/28 11:19:25;;;;;;;4.93;1.90;;;;;;;;;;5070958;28;20124;-67
2021/12/28 11:21:55;;;;;;;3.92;1.83;;;;;;;;;;5070502;28;20040;-68
2021/12/28 11:24:20;;;;;;;4.30;2.00;;;;;;;;;;5085390;28;20486;-67
2021/12/28 11:26:50;;;;;;;3.70;2.25;;;;;;;;;;5089122;28;20047;-66
2021/12/28 11:29:15;;;;;;;;;;;;;;;;;;5071282;28;20040;-66
2021/12/28 11:31:42;;;;;;;3.75;2.53;;;;;;;;;;5088904;28;19920;-67
2021/12/28 11:34:11;;;;;;;6.90;2.65;;;;;;;;;;5054415;28;20395;-65
2021/12/28 11:36:42;;;;;;;5.97;3.08;;;;;;;;;;5070905;28;20378;-66
2021/12/28 11:39:10;;;;;;;5.38;3.25;;;;;;;;;;5054623;28;20039;-64
2021/12/28 11:41:36;;;;;;;7.38;3.78;;;;;;;;;;5054371;28;20093;-64
2021/12/28 11:44:02;;;;;;;5.43;3.30;;;;;;;;;;5089064;28;20032;-67
2021/12/28 11:46:28;;;;;;;5.15;3.40;;;;;;;;;;5089135;28;20036;-68
2021/12/28 11:48:54;;;;;;;6.97;3.50;;;;;;;;;;5070799;28;20036;-67
2021/12/28 11:51:22;;;;;;;5.55;2.75;;;;;;;;;;5070515;28;20035;-67
2021/12/28 11:53:48;;;;;;;4.28;2.25;;;;;;;;;;5052393;28;20490;-66
2021/12/28 11:56:16;;;;;;;4.35;2.63;;;;;;;;;;5069054;28;20032;-66
2021/12/28 11:58:57;;;;;;;6.20;2.60;;;;;;;;;;5068233;28;20394;-66
2021/12/28 12:01:42;;;;;;;4.47;2.67;;;;;;;;;;5054011;28;20047;-65
2021/12/28 12:04:26;;;;;;;4.47;2.17;;;;;;;;;;5087958;28;20089;-65
2021/12/28 12:06:58;;;;;;;6.53;2.83;;;;;;;;;;5088754;28;20475;-65
2021/12/28 12:09:27;;;;;;;4.68;2.60;;;;;;;;;;5070588;28;20040;-66
2021/12/28 12:12:09;;;;;;;6.90;3.22;;;;;;;;;;5070793;28;20073;-66
2021/12/28 12:14:50;;;;;;;7.50;3.00;;;;;;;;;;5070784;28;20071;-66
2021/12/28 12:17:26;;;;;;;7.38;2.55;;;;;;;;;;5087581;28;20036;-66
2021/12/28 12:19:52;;;;;;;5.78;2.47;;;;;;;;;;5053907;28;20173;-66
2021/12/28 12:22:41;;;;;;;7.95;2.63;;;;;;;;;;5053872;28;20036;-65
2021/12/28 12:25:08;;;;;;;6.17;2.13;;;;;;;;;;5082940;28;20036;-68
2021/12/28 12:27:38;;;;;;;4.93;2.55;;;;;;;;;;5070435;28;20621;-66
2021/12/28 12:30:24;;;;;;;4.03;2.08;;;;;;;;;;5053836;28;20036;-66
2021/12/28 12:33:01;;;;;;;6.35;2.00;;;;;;;;;;5088263;28;20036;-64
2021/12/28 12:35:43;;;;;;;5.25;2.40;;;;;;;;;;5053765;28;20123;-66
2021/12/28 12:38:12;;;;;;;4.45;2.10;;;;;;;;;;5070462;28;20395;-66
2021/12/28 12:40:59;;;;;;;3.75;1.92;;;;;;;;;;5088166;28;20469;-66
2021/12/28 12:43:45;;;;;;;3.22;1.98;;;;;;;;;;5088366;28;20157;-66
2021/12/28 12:46:11;;;;;;;5.60;1.80;;;;;;;;;;5087792;28;20131;-65
2021/12/28 12:48:37;;;;;;;3.30;1.80;;;;;;;;;;5086913;28;20115;-65
2021/12/28 12:51:24;;;;;;;5.20;1.77;;;;;;;;;;5088341;28;20035;-65
2021/12/28 12:54:02;;;;;;;3.38;1.38;;;;;;;;;;5053426;28;20032;-65
2021/12/28 12:56:30;;;;;;;4.18;1.60;;;;;;;;;;5070402;28;20043;-66
2021/12/28 12:59:01;;;;;;;2.80;1.58;;;;;;;;;;5069999;28;20040;-66
2021/12/28 13:01:27;;;;;;;3.72;1.80;;;;;;;;;;5070447;28;20044;-65
2021/12/28 13:04:00;;;;;;;6.78;1.55;;;;;;;;;;5070092;28;20043;-68
2021/12/28 13:06:41;;;;;;;4.13;1.83;;;;;;;;;;5087328;28;20042;-67
2021/12/28 13:09:07;;;;;;;2.33;1.38;;;;;;;;;;5088287;28;20428;-65
2021/12/28 13:11:34;;;;;;;3.10;1.50;;;;;;;;;;5072938;28;20083;-65
2021/12/28 13:14:00;;;;;;;4.05;1.63;;;;;;;;;;5073693;28;20036;-66
2021/12/28 13:16:25;;;;;;;2.47;1.35;;;;;;;;;;5091704;28;20077;-67
2021/12/28 13:19:04;;;;;;;6.18;1.90;;;;;;;;;;5091443;28;20036;-66
2021/12/28 13:21:29;;;;;;;4.10;1.90;;;;;;;;;;5073556;28;20085;-67
2021/12/28 13:24:07;;;;;;;3.03;1.63;;;;;;;;;;5091492;28;20467;-67
2021/12/28 13:26:46;;;;;;;3.97;1.65;;;;;;;;;;5056338;28;20136;-67
2021/12/28 13:29:21;;;;;;;4.55;1.88;;;;;;;;;;5073218;28;20552;-66
2021/12/28 13:31:46;;;;;;;3.83;1.70;;;;;;;;;;5056282;28;20035;-67
2021/12/28 13:34:12;;;;;;;4.80;1.65;;;;;;;;;;5091237;28;20030;-67
2021/12/28 13:36:47;;;;;;;3.85;1.90;;;;;;;;;;5091226;28;20073;-67
2021/12/28 13:39:13;;;;;;;4.85;1.90;;;;;;;;;;5073001;28;20132;-67
2021/12/28 13:41:38;;;;;;;4.03;2.13;;;;;;;;;;5091407;28;20453;-67
2021/12/28 13:44:04;;;;;;;4.65;2.08;;;;;;;;;;5090982;28;20039;-67
2021/12/28 13:46:30;;;;;;;8.73;2.25;;;;;;;;;;5091154;28;20383;-66
2021/12/28 13:48:58;;;;;;;4.72;1.75;;;;;;;;;;5090794;28;20032;-66
2021/12/28 13:51:23;;;;;;;6.30;1.60;;;;;;;;;;5090735;28;20024;-67
2021/12/28 13:53:52;;;;;;;5.18;1.80;;;;;;;;;;5091428;28;20028;-67
2021/12/28 13:56:35;;;;;;;3.47;1.60;;;;;;;;;;5090928;28;20055;-66
2021/12/28 13:59:05;;;;;;;4.80;1.40;;;;;;;;;;5090949;28;20032;-67
2021/12/28 14:01:32;;;;;;;4.70;1.67;;;;;;;;;;5056052;28;20036;-67
2021/12/28 14:03:58;;;;;;;6.03;2.00;;;;;;;;;;5056074;28;20062;-67
2021/12/28 14:06:23;;;;;;;5.40;2.08;;;;;;;;;;5090922;28;20040;-68
2021/12/28 14:08:49;;;;;;;4.35;1.88;;;;;;;;;;5089709;28;20032;-68
2021/12/28 14:11:27;;;;;;;6.93;1.70;;;;;;;;;;5072392;28;20074;-68
2021/12/28 14:13:53;;;;;;;5.53;2.33;;;;;;;;;;5072661;28;20036;-67
2021/12/28 14:16:18;;;;;;;7.85;2.45;;;;;;;;;;5090666;28;20020;-68
2021/12/28 14:18:45;;;;;;;4.05;1.75;;;;;;;;;;5090419;28;20039;-67
2021/12/28 14:21:11;;;;;;;3.65;1.80;;;;;;;;;;5071912;28;20479;-66
2021/12/28 14:23:36;;;;;;;6.25;1.98;;;;;;;;;;5090181;28;20046;-67
2021/12/28 14:26:06;;;;;;;6.72;2.00;;;;;;;;;;5090307;28;20107;-66
2021/12/28 14:28:32;;;;;;;3.60;1.80;;;;;;;;;;5072434;28;20086;-66
2021/12/28 14:31:11;;;;;;;5.55;1.83;;;;;;;;;;5072056;28;20118;-68
2021/12/28 14:33:47;;;;;;;5.22;1.85;;;;;;;;;;5072062;28;20039;-67
2021/12/28 14:36:13;;;;;;;6.30;2.67;;;;;;;;;;5071794;28;20036;-67
2021/12/28 14:38:39;;;;;;;3.45;1.90;;;;;;;;;;5071613;28;20036;-67
2021/12/28 14:41:18;;;;;;;4.85;1.83;;;;;;;;;;5089668;28;20039;-67
2021/12/28 14:43:44;;;;;;;2.80;1.23;;;;;;;;;;5072188;28;20040;-66
2021/12/28 14:46:23;;;;;;;6.45;2.03;;;;;;;;;;5089315;28;20043;-67
2021/12/28 14:48:49;;;;;;;5.43;2.03;;;;;;;;;;5074943;28;20036;-67